createdAt,value
2018-01-28T00:00:03.811Z,9.31
2018-01-28T00:05:05.906Z,9.20
2018-01-28T00:10:07.258Z,9.14
2018-01-28T00:15:08.650Z,9.20
2018-01-28T00:20:09.986Z,9.12
2018-01-28T00:25:12.068Z,9.19
2018-01-28T00:30:13.446Z,9.17
2018-01-28T00:35:14.755Z,9.19
2018-01-28T00:40:16.079Z,9.20
2018-01-28T00:45:18.130Z,9.10
2018-01-28T00:50:19.454Z,8.99
2018-01-28T00:55:20.803Z,9.01
2018-01-28T01:00:22.137Z,8.96
2018-01-28T01:05:23.446Z,9.02
2018-01-28T01:10:24.794Z,8.98
2018-01-28T01:15:26.120Z,8.95
2018-01-28T01:20:28.182Z,9.03
2018-01-28T01:25:29.507Z,8.94
2018-01-28T01:30:31.567Z,8.96
2018-01-28T01:35:32.901Z,9.03
2018-01-28T01:40:34.985Z,9.07
2018-01-28T01:45:36.304Z,8.99
2018-01-28T01:50:38.372Z,8.92
2018-01-28T01:55:39.697Z,8.93
2018-01-28T02:00:41.771Z,8.99
2018-01-28T02:05:43.118Z,8.92
2018-01-28T02:10:44.427Z,9.02
2018-01-28T02:15:45.797Z,9.04
2018-01-28T02:20:47.152Z,9.03
2018-01-28T02:25:49.230Z,9.08
2018-01-28T02:30:50.530Z,9.00
2018-01-28T02:35:51.831Z,9.07
2018-01-28T02:40:53.122Z,8.98
2018-01-28T02:45:54.448Z,8.97
2018-01-28T02:50:55.776Z,8.91
2018-01-28T02:55:57.103Z,8.96
2018-01-28T03:00:58.423Z,9.03
2018-01-28T03:05:59.742Z,8.97
2018-01-28T03:11:01.094Z,9.06
2018-01-28T03:16:02.446Z,8.98
2018-01-28T03:21:03.748Z,8.92
2018-01-28T03:26:05.812Z,8.92
2018-01-28T03:31:07.192Z,8.91
2018-01-28T03:36:08.616Z,8.96
2018-01-28T03:41:09.933Z,9.14
2018-01-28T03:46:12.016Z,9.07
2018-01-28T03:51:13.426Z,9.05
2018-01-28T03:56:15.486Z,9.04
2018-01-28T04:01:16.824Z,9.18
2018-01-28T04:06:18.882Z,9.24
2018-01-28T04:11:20.231Z,9.22
2018-01-28T04:16:21.560Z,9.43
2018-01-28T04:21:22.900Z,9.34
2018-01-28T04:26:24.960Z,9.45
2018-01-28T04:31:26.319Z,9.69
2018-01-28T04:36:27.642Z,9.58
2018-01-28T04:41:28.948Z,9.67
2018-01-28T04:46:30.288Z,9.68
2018-01-28T04:51:31.603Z,9.87
2018-01-28T04:56:32.923Z,9.92
2018-01-28T05:01:44.200Z,9.98
2018-01-28T05:06:45.543Z,9.96
2018-01-28T05:11:47.614Z,9.93
2018-01-28T05:16:48.968Z,9.95
2018-01-28T05:21:50.322Z,10.00
2018-01-28T05:26:51.679Z,10.18
2018-01-28T05:31:53.000Z,10.15
2018-01-28T05:36:54.325Z,10.24
2018-01-28T05:41:55.632Z,10.23
2018-01-28T05:46:56.947Z,10.17
2018-01-28T05:51:58.252Z,10.23
2018-01-28T05:56:59.596Z,10.27
2018-01-28T06:02:00.927Z,10.34
2018-01-28T06:07:03.556Z,10.42
2018-01-28T06:12:04.876Z,10.34
2018-01-28T06:17:06.184Z,10.37
2018-01-28T06:22:07.509Z,10.46
2018-01-28T06:27:08.971Z,10.40
2018-01-28T06:32:10.319Z,10.43
2018-01-28T06:37:12.376Z,10.47
2018-01-28T06:42:13.743Z,10.34
2018-01-28T06:47:22.085Z,10.47
2018-01-28T06:52:23.422Z,10.45
2018-01-28T06:57:24.735Z,10.51
2018-01-28T07:02:26.114Z,10.56
2018-01-28T07:07:28.398Z,10.54
2018-01-28T07:12:30.523Z,10.55
2018-01-28T07:17:32.221Z,10.54
2018-01-28T07:22:33.570Z,10.66
2018-01-28T07:27:34.900Z,10.56
2018-01-28T07:32:36.218Z,10.66
2018-01-28T07:37:37.558Z,10.76
2018-01-28T07:42:38.913Z,10.71
2018-01-28T07:47:40.984Z,10.88
2018-01-28T07:52:42.359Z,10.81
2018-01-28T07:57:43.779Z,10.34
2018-01-28T08:02:45.115Z,10.80
2018-01-28T08:07:46.440Z,10.87
2018-01-28T08:12:51.695Z,10.81
2018-01-28T08:17:53.071Z,10.89
2018-01-28T08:22:54.391Z,10.97
2018-01-28T08:28:00.794Z,11.03
2018-01-28T08:33:02.128Z,10.92
2018-01-28T08:38:13.406Z,10.89
2018-01-28T08:43:14.759Z,10.91
2018-01-28T08:48:16.159Z,11.01
2018-01-28T08:53:17.576Z,11.16
2018-01-28T08:58:18.992Z,11.21
2018-01-28T09:03:20.627Z,11.28
2018-01-28T09:08:22.122Z,11.48
2018-01-28T09:13:23.458Z,11.51
2018-01-28T09:18:24.811Z,11.52
2018-01-28T09:23:26.163Z,11.62
2018-01-28T09:28:27.517Z,11.66
2018-01-28T09:33:28.906Z,11.84
2018-01-28T09:38:30.266Z,12.04
2018-01-28T09:43:31.641Z,12.22
2018-01-28T09:48:33.227Z,12.21
2018-01-28T09:53:34.611Z,12.29
2018-01-28T09:58:35.973Z,12.11
2018-01-28T10:03:37.381Z,12.15
2018-01-28T10:08:38.722Z,12.15
2018-01-28T10:13:40.098Z,12.21
2018-01-28T10:18:41.437Z,12.34
2018-01-28T10:23:42.772Z,12.34
2018-01-28T10:28:44.115Z,12.49
2018-01-28T10:33:45.476Z,12.65
2018-01-28T10:38:46.785Z,12.68
2018-01-28T10:43:48.127Z,12.70
2018-01-28T10:48:50.225Z,12.69
2018-01-28T10:53:52.440Z,12.70
2018-01-28T10:58:54.509Z,12.91
2018-01-28T11:03:55.847Z,13.10
2018-01-28T11:08:57.332Z,13.21
2018-01-28T11:13:59.404Z,13.17
2018-01-28T11:19:00.769Z,13.21
2018-01-28T11:24:02.133Z,13.31
2018-01-28T11:29:03.541Z,13.34
2018-01-28T11:34:04.872Z,13.31
2018-01-28T11:39:06.205Z,13.09
2018-01-28T11:44:07.521Z,13.10
2018-01-28T11:49:08.846Z,13.23
2018-01-28T11:54:10.596Z,13.25
2018-01-28T11:59:11.891Z,13.17
2018-01-28T12:04:13.208Z,13.17
2018-01-28T12:09:14.717Z,13.18
2018-01-28T12:14:18.311Z,13.16
2018-01-28T12:19:20.466Z,13.20
2018-01-28T12:24:21.992Z,13.27
2018-01-28T12:29:23.403Z,13.19
2018-01-28T12:34:25.298Z,13.32
2018-01-28T12:39:27.175Z,13.41
2018-01-28T12:44:29.554Z,13.36
2018-01-28T12:49:31.068Z,13.32
2018-01-28T12:54:34.112Z,13.39
2018-01-28T12:59:36.077Z,13.43
2018-01-28T13:04:37.514Z,13.74
2018-01-28T13:09:38.906Z,13.76
2018-01-28T13:14:40.964Z,13.91
2018-01-28T13:19:43.159Z,13.79
2018-01-28T13:24:44.587Z,13.69
2018-01-28T13:29:45.903Z,13.76
2018-01-28T13:34:47.232Z,13.69
2018-01-28T13:39:48.618Z,13.65
2018-01-28T13:44:50.189Z,13.57
2018-01-28T13:49:51.494Z,13.46
2018-01-28T13:54:52.863Z,13.68
2018-01-28T13:59:54.662Z,13.78
2018-01-28T14:04:55.991Z,13.66
2018-01-28T14:09:57.879Z,13.74
2018-01-28T14:14:59.230Z,13.67
2018-01-28T14:20:01.362Z,13.65
2018-01-28T14:25:02.772Z,13.69
2018-01-28T14:30:04.200Z,13.68
2018-01-28T14:35:05.578Z,13.64
2018-01-28T14:40:07.452Z,13.57
2018-01-28T14:45:08.888Z,13.55
2018-01-28T14:50:10.228Z,13.62
2018-01-28T14:55:11.601Z,13.65
2018-01-28T15:00:12.937Z,13.61
2018-01-28T15:05:14.273Z,13.55
2018-01-28T15:10:16.139Z,13.62
2018-01-28T15:15:18.231Z,13.57
2018-01-28T15:20:19.618Z,13.61
2018-01-28T15:25:20.939Z,13.56
2018-01-28T15:30:23.039Z,13.45
2018-01-28T15:35:24.357Z,13.38
2018-01-28T15:40:25.683Z,13.36
2018-01-28T15:45:27.038Z,13.41
2018-01-28T15:50:28.412Z,13.31
2018-01-28T15:55:30.504Z,13.30
2018-01-28T16:00:31.870Z,13.29
2018-01-28T16:05:33.235Z,13.29
2018-01-28T16:10:34.553Z,13.45
2018-01-28T16:15:35.888Z,13.47
2018-01-28T16:20:37.211Z,13.48
2018-01-28T16:25:38.540Z,13.43
2018-01-28T16:30:39.876Z,13.46
2018-01-28T16:35:41.272Z,13.44
2018-01-28T16:40:42.593Z,13.34
2018-01-28T16:45:43.947Z,13.28
2018-01-28T16:50:45.284Z,13.19
2018-01-28T16:55:46.602Z,13.20
2018-01-28T17:00:47.942Z,13.07
2018-01-28T17:05:49.293Z,13.04
2018-01-28T17:10:50.607Z,13.02
2018-01-28T17:15:51.926Z,12.97
2018-01-28T17:20:53.986Z,12.96
2018-01-28T17:25:55.336Z,13.03
2018-01-28T17:30:56.659Z,13.10
2018-01-28T17:35:57.956Z,13.02
2018-01-28T17:40:59.306Z,13.00
2018-01-28T17:46:01.369Z,13.11
2018-01-28T17:51:02.731Z,13.06
2018-01-28T17:56:04.040Z,13.06
2018-01-28T18:01:05.379Z,13.11
2018-01-28T18:06:07.433Z,13.13
2018-01-28T18:11:08.887Z,13.03
2018-01-28T18:16:10.936Z,13.04
2018-01-28T18:21:12.308Z,13.06
2018-01-28T18:26:13.644Z,13.08
2018-01-28T18:31:14.980Z,13.17
2018-01-28T18:36:16.360Z,13.14
2018-01-28T18:41:20.028Z,13.04
2018-01-28T18:46:21.373Z,13.16
2018-01-28T18:51:22.764Z,13.07
2018-01-28T18:56:24.184Z,13.10
2018-01-28T19:01:32.419Z,13.07
2018-01-28T19:06:35.474Z,13.07
2018-01-28T19:11:37.686Z,13.04
2018-01-28T19:16:40.103Z,13.06
2018-01-28T19:21:41.450Z,13.03
2018-01-28T19:26:44.440Z,13.04
2018-01-28T19:31:46.118Z,13.01
2018-01-28T19:36:47.468Z,12.97
2018-01-28T19:41:49.607Z,12.95
2018-01-28T19:46:51.726Z,13.03
2018-01-28T19:51:54.332Z,13.12
2018-01-28T19:56:56.159Z,12.99
2018-01-28T20:01:57.920Z,13.05
2018-01-28T20:06:59.673Z,13.07
2018-01-28T20:12:01.043Z,13.10
2018-01-28T20:17:02.390Z,13.07
2018-01-28T20:22:04.945Z,13.04
2018-01-28T20:27:06.316Z,13.17
2018-01-28T20:32:07.674Z,13.08
2018-01-28T20:37:09.028Z,13.07
2018-01-28T20:42:10.383Z,13.08
2018-01-28T20:47:11.736Z,13.11
2018-01-28T20:52:13.061Z,13.21
2018-01-28T20:57:15.175Z,13.17
2018-01-28T21:02:16.563Z,13.18
2018-01-28T21:07:17.983Z,13.20
2018-01-28T21:12:19.361Z,13.17
2018-01-28T21:17:20.734Z,13.25
2018-01-28T21:22:22.902Z,13.23
2018-01-28T21:27:24.243Z,13.17
2018-01-28T21:32:25.596Z,13.13
2018-01-28T21:37:26.944Z,13.18
2018-01-28T21:42:28.335Z,13.10
2018-01-28T21:47:29.704Z,13.17
2018-01-28T21:52:31.060Z,13.12
2018-01-28T21:57:32.683Z,13.14
2018-01-28T22:02:34.202Z,13.17
2018-01-28T22:07:35.908Z,13.21
2018-01-28T22:12:37.448Z,13.20
2018-01-28T22:17:38.934Z,13.12
2018-01-28T22:22:40.354Z,13.15
2018-01-28T22:27:41.709Z,13.17
2018-01-28T22:32:43.024Z,13.26
2018-01-28T22:37:44.475Z,13.34
2018-01-28T22:42:45.917Z,13.34
2018-01-28T22:47:47.310Z,13.36
2018-01-28T22:52:48.949Z,13.31
2018-01-28T22:57:50.293Z,13.28
2018-01-28T23:02:51.631Z,13.28
2018-01-28T23:07:53.150Z,13.31
2018-01-28T23:12:55.369Z,13.23
2018-01-28T23:17:56.681Z,13.26
2018-01-28T23:22:57.999Z,13.09
2018-01-28T23:27:59.323Z,13.18
2018-01-28T23:33:00.663Z,13.27
2018-01-28T23:38:02.035Z,13.17
2018-01-28T23:43:03.384Z,13.23
2018-01-28T23:48:04.731Z,13.26
2018-01-28T23:53:06.042Z,13.26
2018-01-28T23:58:07.407Z,13.24
